Time;durP1;ratioP1;P1;durP2;ratioP2;P2;SDS_P1;SDS_P2;PMS_P1;PMS_P2;Temp;Humidity;BMP_temperature;BMP_pressure;BME280_temperature;BME280_humidity;BME280_pressure;Samples;Min_cycle;Max_cycle;Signal;HPM_P1;HPM_P2
2022/12/04 00:01:11;;;;;;;;;;;;;;;;;;5032310;28;19987;-74
2022/12/04 00:03:38;;;;;;;;;;;;;;;;;;5032286;28;19979;-73
2022/12/04 00:06:05;;;;;;;;;;;;;;;;;;5032659;28;20011;-73
2022/12/04 00:08:32;;;;;;;;;;;;;;;;;;5032616;28;20482;-73
2022/12/04 00:11:01;;;;;;;;;;;;;;;;;;5032482;28;20016;-75
2022/12/04 00:13:28;;;;;;;;;;;;;;;;;;5033447;28;20372;-74
2022/12/04 00:15:54;;;;;;;;;;;;;;;;;;5034113;28;19936;-73
2022/12/04 00:18:22;;;;;;;;;;;;;;;;;;5034184;28;20388;-72
2022/12/04 00:20:49;;;;;;;;;;;;;;;;;;5034208;28;19931;-73
2022/12/04 00:23:15;;;;;;;;;;;;;;;;;;5034121;28;19925;-74
2022/12/04 00:25:41;;;;;;;;;;;;;;;;;;5034627;28;20404;-73
2022/12/04 00:28:08;;;;;;;;;;;;;;;;;;5034886;28;19967;-72
2022/12/04 00:30:35;;;;;;;;;;;;;;;;;;5034231;28;20567;-72
2022/12/04 00:33:01;;;;;;;;;;;;;;;;;;5033880;28;20404;-72
2022/12/04 00:35:29;;;;;;;;;;;;;;;;;;5033448;28;19979;-73
2022/12/04 00:37:56;;;;;;;;;;;;;;;;;;5033677;28;19926;-73
2022/12/04 00:40:22;;;;;;;;;;;;;;;;;;5033546;28;19972;-73
2022/12/04 00:42:48;;;;;;;;;;;;;;;;;;5033808;28;20016;-73
2022/12/04 00:45:15;;;;;;;;;;;;;;;;;;5033851;28;19936;-73
2022/12/04 00:47:41;;;;;;;;;;;;;;;;;;5033274;28;20292;-73
2022/12/04 00:50:08;;;;;;;;;;;;;;;;;;5033970;28;19925;-73
2022/12/04 00:52:36;;;;;;;;;;;;;;;;;;5051800;23;19972;-53
2022/12/04 00:55:03;;;;;;;;;;;;;;;;;;5013035;28;19929;-50
2022/12/04 00:57:30;;;;;;;;;;;;;;;;;;5032464;28;19925;-51
2022/12/04 00:59:56;;;;;;;;;;;;;;;;;;5023240;28;19971;-56
2022/12/04 01:02:25;;;;;;;;;;;;;;;;;;5012975;28;20275;-56
2022/12/04 01:04:52;;;;;;;;;;;;;;;;;;5013565;28;19929;-53
2022/12/04 01:07:18;;;;;;;;;;;;;;;;;;5013142;28;19929;-55
2022/12/04 01:09:46;;;;;;;;;;;;;;;;;;5013934;28;19976;-50
2022/12/04 01:12:13;;;;;;;;;;;;;;;;;;5013153;28;20192;-51
2022/12/04 01:14:39;;;;;;;;;;;;;;;;;;5013504;28;19929;-50
2022/12/04 01:17:06;;;;;;;;;;;;;;;;;;5013294;28;19925;-54
2022/12/04 01:19:32;;;;;;;;;;;;;;;;;;5013282;28;20337;-54
2022/12/04 01:21:59;;;;;;;;;;;;;;;;;;5013068;28;19971;-55
2022/12/04 01:24:25;;;;;;;;;;;;;;;;;;5013420;28;19926;-52
2022/12/04 01:26:53;;;;;;;;;;;;;;;;;;5013154;28;20078;-50
2022/12/04 01:29:20;;;;;;;;;;;;;;;;;;5012994;28;19996;-56
2022/12/04 01:31:47;;;;;;;;;;;;;;;;;;5012704;28;19972;-50
2022/12/04 01:34:13;;;;;;;;;;;;;;;;;;5013213;28;20440;-54
2022/12/04 01:36:40;;;;;;;;;;;;;;;;;;5012639;28;20441;-62
2022/12/04 01:39:06;;;;;;;;;;;;;;;;;;5012860;28;19932;-60
2022/12/04 01:41:33;;;;;;;;;;;;;;;;;;5012870;28;19926;-62
2022/12/04 01:44:20;;;;;;;;;;;;;;;;;;5012907;28;19971;-60
2022/12/04 01:46:51;;;;;;;;;;;;;;;;;;5007891;28;20041;-63
2022/12/04 01:49:19;;;;;;;;;;;;;;;;;;5012342;28;19980;-61
2022/12/04 01:51:48;;;;;;;;;;;;;;;;;;5012511;28;20318;-62
2022/12/04 01:54:17;;;;;;;;;;;;;;;;;;5012621;28;20378;-61
2022/12/04 01:56:45;;;;;;;;;;;;;;;;;;5012637;28;19929;-55
2022/12/04 01:59:12;;;;;;;;;;;;;;;;;;5012879;28;19926;-58
2022/12/04 02:01:42;;;;;;;;;;;;;;;;;;5012207;28;19979;-57
2022/12/04 02:04:10;;;;;;;;;;;;;;;;;;5012899;28;19956;-59
2022/12/04 02:06:37;;;;;;;;;;;;;;;;;;5012591;28;20346;-54
2022/12/04 02:09:03;;;;;;;;;;;;;;;;;;5012553;28;19925;-56
2022/12/04 02:11:33;;;;;;;;;;;;;;;;;;5012277;28;19925;-58
2022/12/04 02:14:04;;;;;;;;;;;;;;;;;;5012909;28;19925;-58
2022/12/04 02:16:35;;;;;;;;;;;;;;;;;;5012317;28;19929;-58
2022/12/04 02:19:07;;;;;;;;;;;;;;;;;;5012646;28;19929;-58
2022/12/04 02:21:36;;;;;;;;;;;;;;;;;;5012123;28;19925;-59
2022/12/04 02:24:09;;;;;;;;;;;;;;;;;;5012320;28;19941;-57
2022/12/04 02:26:40;;;;;;;;;;;;;;;;;;5008352;28;20370;-56
2022/12/04 02:29:09;;;;;;;;;;;;;;;;;;5012299;28;19929;-57
2022/12/04 02:31:38;;;;;;;;;;;;;;;;;;5011657;28;19926;-58
2022/12/04 02:34:07;;;;;;;;;;;;;;;;;;5011925;28;20011;-57
2022/12/04 02:36:36;;;;;;;;;;;;;;;;;;5012291;28;19979;-56
2022/12/04 02:39:05;;;;;;;;;;;;;;;;;;5011555;28;20012;-58
2022/12/04 02:41:36;;;;;;;;;;;;;;;;;;5011262;28;19933;-56
2022/12/04 02:44:04;;;;;;;;;;;;;;;;;;5011558;28;19956;-57
2022/12/04 02:46:35;;;;;;;;;;;;;;;;;;5012247;28;19979;-58
2022/12/04 02:49:02;;;;;;;;;;;;;;;;;;5012186;28;20410;-58
2022/12/04 02:51:31;;;;;;;;;;;;;;;;;;5011690;28;19957;-58
2022/12/04 02:53:59;;;;;;;;;;;;;;;;;;5011486;28;19926;-58
2022/12/04 02:56:27;;;;;;;;;;;;;;;;;;5011845;28;19925;-58
2022/12/04 02:58:55;;;;;;;;;;;;;;;;;;5012627;28;20432;-58
2022/12/04 03:01:25;;;;;;;;;;;;;;;;;;5015777;28;20433;-58
2022/12/04 03:03:54;;;;;;;;;;;;;;;;;;5015308;28;19925;-56
2022/12/04 03:06:22;;;;;;;;;;;;;;;;;;5015920;28;19930;-52
2022/12/04 03:08:51;;;;;;;;;;;;;;;;;;5015394;28;19929;-58
2022/12/04 03:11:17;;;;;;;;;;;;;;;;;;5015542;28;19976;-59
2022/12/04 03:13:47;;;;;;;;;;;;;;;;;;5015161;28;20390;-59
2022/12/04 03:16:16;;;;;;;;;;;;;;;;;;5015152;28;20341;-59
2022/12/04 03:18:43;;;;;;;;;;;;;;;;;;5014698;28;20354;-58
2022/12/04 03:21:14;;;;;;;;;;;;;;;;;;4995945;28;20041;-59
2022/12/04 03:23:44;;;;;;;;;;;;;;;;;;4996176;28;19926;-58
2022/12/04 03:26:12;;;;;;;;;;;;;;;;;;5014635;28;19925;-58
2022/12/04 03:28:43;;;;;;;;;;;;;;;;;;5015433;28;19937;-56
2022/12/04 03:31:10;;;;;;;;;;;;;;;;;;5014749;28;19929;-56
2022/12/04 03:33:39;;;;;;;;;;;;;;;;;;5015662;28;19933;-57
2022/12/04 03:36:10;;;;;;;;;;;;;;;;;;5014222;28;19925;-58
2022/12/04 03:38:41;;;;;;;;;;;;;;;;;;5015312;28;19926;-55
2022/12/04 03:41:12;;;;;;;;;;;;;;;;;;5014884;28;19929;-57
2022/12/04 03:43:42;;;;;;;;;;;;;;;;;;5014603;28;19925;-57
2022/12/04 03:46:10;;;;;;;;;;;;;;;;;;5014943;28;19929;-58
2022/12/04 03:48:38;;;;;;;;;;;;;;;;;;5014485;28;19925;-57
2022/12/04 03:51:08;;;;;;;;;;;;;;;;;;5014573;28;19929;-57
2022/12/04 03:53:38;;;;;;;;;;;;;;;;;;5014683;28;19997;-58
2022/12/04 03:56:10;;;;;;;;;;;;;;;;;;5014342;28;19929;-53
2022/12/04 03:58:38;;;;;;;;;;;;;;;;;;5014349;28;19930;-51
2022/12/04 04:01:07;;;;;;;;;;;;;;;;;;5014319;28;19926;-54
2022/12/04 04:03:36;;;;;;;;;;;;;;;;;;5014487;28;19969;-56
2022/12/04 04:06:09;;;;;;;;;;;;;;;;;;5014130;28;19929;-57
2022/12/04 04:08:37;;;;;;;;;;;;;;;;;;5014163;28;19983;-58
2022/12/04 04:11:08;;;;;;;;;;;;;;;;;;5012784;28;19932;-58
2022/12/04 04:24:39;;;;;;;;;;;;;;;;;;5014652;28;20025;-59
2022/12/04 04:27:07;;;;;;;;;;;;;;;;;;5014201;28;20398;-58
2022/12/04 04:29:34;;;;;;;;;;;;;;;;;;5013966;28;19933;-59
2022/12/04 04:32:03;;;;;;;;;;;;;;;;;;5013932;28;19929;-58
2022/12/04 04:34:31;;;;;;;;;;;;;;;;;;5014412;28;20430;-57
2022/12/04 04:37:00;;;;;;;;;;;;;;;;;;5013980;28;19930;-56
2022/12/04 04:39:30;;;;;;;;;;;;;;;;;;5013649;28;19984;-55
2022/12/04 04:42:00;;;;;;;;;;;;;;;;;;5013772;28;19932;-58
2022/12/04 04:44:33;;;;;;;;;;;;;;;;;;5014200;28;19941;-58
2022/12/04 04:47:02;;;;;;;;;;;;;;;;;;5013969;28;19926;-59
2022/12/04 04:49:30;;;;;;;;;;;;;;;;;;5013225;28;19972;-58
2022/12/04 04:51:57;;;;;;;;;;;;;;;;;;5013232;28;19929;-57
2022/12/04 04:54:24;;;;;;;;;;;;;;;;;;5013838;28;19925;-57
2022/12/04 04:56:50;;;;;;;;;;;;;;;;;;5013340;28;19929;-57
2022/12/04 04:59:17;;;;;;;;;;;;;;;;;;5013538;28;19933;-54
2022/12/04 05:01:45;;;;;;;;;;;;;;;;;;5012974;28;19925;-58
2022/12/04 05:04:12;;;;;;;;;;;;;;;;;;5013731;28;20359;-58
2022/12/04 05:06:38;;;;;;;;;;;;;;;;;;5013647;28;19926;-54
2022/12/04 05:09:05;;;;;;;;;;;;;;;;;;5012906;28;19980;-57
2022/12/04 05:11:31;;;;;;;;;;;;;;;;;;5013146;28;19926;-57
2022/12/04 05:13:58;;;;;;;;;;;;;;;;;;5013467;28;19925;-55
2022/12/04 05:16:24;;;;;;;;;;;;;;;;;;5013015;28;19980;-57
2022/12/04 05:21:36;;;;;;;;;;;;;;;;;;5012877;28;19936;-59
2022/12/04 05:24:03;;;;;;;;;;;;;;;;;;5013163;28;19995;-57
2022/12/04 05:26:29;;;;;;;;;;;;;;;;;;5013154;28;20425;-57
2022/12/04 05:28:56;;;;;;;;;;;;;;;;;;5012284;28;20191;-57
2022/12/04 05:31:22;;;;;;;;;;;;;;;;;;5012663;28;20345;-58
2022/12/04 05:33:49;;;;;;;;;;;;;;;;;;5013157;28;19972;-58
2022/12/04 05:36:17;;;;;;;;;;;;;;;;;;5012898;28;19933;-59
2022/12/04 05:38:44;;;;;;;;;;;;;;;;;;5012972;28;19932;-59
2022/12/04 05:41:10;;;;;;;;;;;;;;;;;;5012348;28;19929;-59
2022/12/04 05:43:37;;;;;;;;;;;;;;;;;;5013215;28;20349;-58
2022/12/04 05:46:03;;;;;;;;;;;;;;;;;;5013074;28;19948;-58
2022/12/04 05:48:30;;;;;;;;;;;;;;;;;;5012736;28;19930;-58
2022/12/04 05:50:57;;;;;;;;;;;;;;;;;;5011797;28;19930;-59
2022/12/04 05:53:25;;;;;;;;;;;;;;;;;;5012725;28;19926;-57
2022/12/04 05:55:55;;;;;;;;;;;;;;;;;;5012517;28;19933;-56
2022/12/04 05:58:22;;;;;;;;;;;;;;;;;;5012269;28;19926;-59
2022/12/04 06:00:48;;;;;;;;;;;;;;;;;;5011729;28;20040;-59
2022/12/04 06:03:15;;;;;;;;;;;;;;;;;;5012635;28;20445;-58
2022/12/04 06:05:41;;;;;;;;;;;;;;;;;;5007704;28;19949;-58
2022/12/04 06:08:08;;;;;;;;;;;;;;;;;;5012196;28;19930;-57
2022/12/04 06:10:36;;;;;;;;;;;;;;;;;;5011926;28;19925;-58
2022/12/04 06:13:02;;;;;;;;;;;;;;;;;;5012761;28;20406;-59
2022/12/04 06:15:29;;;;;;;;;;;;;;;;;;5012450;28;19929;-57
2022/12/04 06:17:55;;;;;;;;;;;;;;;;;;5012527;28;19929;-55
2022/12/04 06:20:22;;;;;;;;;;;;;;;;;;5012171;28;20345;-54
2022/12/04 06:22:48;;;;;;;;;;;;;;;;;;5012741;28;19972;-50
2022/12/04 06:25:15;;;;;;;;;;;;;;;;;;5012374;28;19948;-52
2022/12/04 06:27:43;;;;;;;;;;;;;;;;;;5012566;28;19976;-52
2022/12/04 06:30:10;;;;;;;;;;;;;;;;;;5012161;28;19969;-51
2022/12/04 06:32:36;;;;;;;;;;;;;;;;;;5012172;28;19976;-58
2022/12/04 06:35:03;;;;;;;;;;;;;;;;;;5015284;28;20386;-54
2022/12/04 06:37:30;;;;;;;;;;;;;;;;;;5016128;28;20534;-53
2022/12/04 06:39:56;;;;;;;;;;;;;;;;;;5016259;28;19926;-54
2022/12/04 06:42:23;;;;;;;;;;;;;;;;;;5016278;28;20379;-52
2022/12/04 06:44:51;;;;;;;;;;;;;;;;;;5016495;28;19941;-50
2022/12/04 06:47:17;;;;;;;;;;;;;;;;;;5016120;28;19929;-54
2022/12/04 06:49:44;;;;;;;;;;;;;;;;;;5016344;28;19929;-51
2022/12/04 06:52:11;;;;;;;;;;;;;;;;;;5015738;28;19925;-56
2022/12/04 06:54:38;;;;;;;;;;;;;;;;;;5015859;28;19929;-52
2022/12/04 06:57:04;;;;;;;;;;;;;;;;;;5033511;23;19929;-69
2022/12/04 06:59:32;;;;;;;;;;;;;;;;;;5016139;28;19926;-71
2022/12/04 07:02:00;;;;;;;;;;;;;;;;;;4995578;28;20336;-71
2022/12/04 07:04:26;;;;;;;;;;;;;;;;;;4996121;28;20387;-71
2022/12/04 07:06:53;;;;;;;;;;;;;;;;;;4996002;28;19932;-72
2022/12/04 07:09:19;;;;;;;;;;;;;;;;;;4996335;28;19932;-71
2022/12/04 07:11:46;;;;;;;;;;;;;;;;;;4995118;28;19930;-71
2022/12/04 07:14:13;;;;;;;;;;;;;;;;;;4996098;28;20016;-70
2022/12/04 07:16:40;;;;;;;;;;;;;;;;;;4995584;28;20392;-72
2022/12/04 07:19:08;;;;;;;;;;;;;;;;;;4995844;28;19926;-71
2022/12/04 07:21:35;;;;;;;;;;;;;;;;;;4995429;28;20021;-71
2022/12/04 07:24:02;;;;;;;;;;;;;;;;;;4995838;28;20009;-70
2022/12/04 07:26:29;;;;;;;;;;;;;;;;;;4995495;28;19965;-70
2022/12/04 07:28:56;;;;;;;;;;;;;;;;;;4995388;28;20009;-71
2022/12/04 07:31:23;;;;;;;;;;;;;;;;;;4995239;28;20028;-72
2022/12/04 07:33:49;;;;;;;;;;;;;;;;;;4995584;28;19934;-72
2022/12/04 07:36:18;;;;;;;;;;;;;;;;;;4996050;28;19933;-72
2022/12/04 07:38:45;;;;;;;;;;;;;;;;;;4994755;28;19948;-71
2022/12/04 07:41:12;;;;;;;;;;;;;;;;;;4995515;28;19925;-70
2022/12/04 07:43:39;;;;;;;;;;;;;;;;;;4995391;28;19965;-71
2022/12/04 07:46:06;;;;;;;;;;;;;;;;;;4995396;28;19933;-70
2022/12/04 07:48:33;;;;;;;;;;;;;;;;;;4995215;28;20032;-75
2022/12/04 07:51:03;;;;;;;;;;;;;;;;;;4994837;28;19969;-72
2022/12/04 07:53:30;;;;;;;;;;;;;;;;;;4995600;28;19932;-71
2022/12/04 07:55:57;;;;;;;;;;;;;;;;;;4995143;28;19930;-69
2022/12/04 07:58:23;;;;;;;;;;;;;;;;;;4995280;28;20024;-71
2022/12/04 08:00:50;;;;;;;;;;;;;;;;;;4994866;28;19969;-72
2022/12/04 08:03:16;;;;;;;;;;;;;;;;;;4992437;28;19930;-70
2022/12/04 08:05:43;;;;;;;;;;;;;;;;;;4993268;28;20012;-72
2022/12/04 08:08:09;;;;;;;;;;;;;;;;;;4991109;28;19932;-70
2022/12/04 08:10:39;;;;;;;;;;;;;;;;;;4975805;28;20008;-70
2022/12/04 08:13:05;;;;;;;;;;;;;;;;;;4982757;28;19965;-73
2022/12/04 08:15:33;;;;;;;;;;;;;;;;;;4995081;28;19933;-71
2022/12/04 08:18:05;;;;;;;;;;;;;;;;;;4995135;28;19926;-71
2022/12/04 08:20:32;;;;;;;;;;;;;;;;;;4976047;28;19970;-71
2022/12/04 08:22:58;;;;;;;;;;;;;;;;;;4979736;28;19930;-71
2022/12/04 08:25:24;;;;;;;;;;;;;;;;;;4994788;28;20028;-71
2022/12/04 08:27:52;;;;;;;;;;;;;;;;;;4994835;28;19969;-71
2022/12/04 08:30:19;;;;;;;;;;;;;;;;;;4993931;28;19925;-72
2022/12/04 08:32:46;;;;;;;;;;;;;;;;;;4994703;28;19930;-71
2022/12/04 08:35:13;;;;;;;;;;;;;;;;;;4994239;28;20300;-71
2022/12/04 08:37:39;;;;;;;;;;;;;;;;;;4994034;28;19932;-70
2022/12/04 08:40:06;;;;;;;;;;;;;;;;;;4994536;28;19925;-71
2022/12/04 08:42:33;;;;;;;;;;;;;;;;;;4994191;28;20008;-72
2022/12/04 08:45:00;;;;;;;;;;;;;;;;;;4994627;28;19925;-70
2022/12/04 08:47:27;;;;;;;;;;;;;;;;;;4993938;28;19926;-72
2022/12/04 08:49:53;;;;;;;;;;;;;;;;;;4990946;28;19961;-71
2022/12/04 08:52:20;;;;;;;;;;;;;;;;;;4993697;28;20017;-71
2022/12/04 08:54:46;;;;;;;;;;;;;;;;;;4994584;28;19980;-71
2022/12/04 08:57:13;;;;;;;;;;;;;;;;;;4993252;28;19976;-70
2022/12/04 08:59:39;;;;;;;;;;;;;;;;;;4988536;28;20303;-72
2022/12/04 09:02:08;;;;;;;;;;;;;;;;;;4990984;28;20012;-76
2022/12/04 09:04:34;;;;;;;;;;;;;;;;;;4989537;28;19932;-75
2022/12/04 09:07:01;;;;;;;;;;;;;;;;;;4987335;28;19926;-74
2022/12/04 09:09:27;;;;;;;;;;;;;;;;;;4984939;28;19929;-74
2022/12/04 09:11:54;;;;;;;;;;;;;;;;;;4986161;28;20028;-74
2022/12/04 09:14:24;;;;;;;;;;;;;;;;;;4983994;28;19926;-74
2022/12/04 09:16:50;;;;;;;;;;;;;;;;;;4982808;28;19929;-74
2022/12/04 09:19:18;;;;;;;;;;;;;;;;;;4982932;28;19932;-74
2022/12/04 09:21:45;;;;;;;;;;;;;;;;;;4982567;28;20023;-74
2022/12/04 09:24:11;;;;;;;;;;;;;;;;;;4985750;28;19933;-73
2022/12/04 09:26:38;;;;;;;;;;;;;;;;;;4985079;28;20411;-73
2022/12/04 09:29:05;;;;;;;;;;;;;;;;;;4985399;28;19934;-75
2022/12/04 09:31:32;;;;;;;;;;;;;;;;;;4983759;28;19976;-74
2022/12/04 09:33:58;;;;;;;;;;;;;;;;;;4985761;28;19926;-74
2022/12/04 09:36:26;;;;;;;;;;;;;;;;;;4989958;28;19963;-74
2022/12/04 09:38:54;;;;;;;;;;;;;;;;;;4994571;28;20359;-74
2022/12/04 09:41:38;;;;;;;;;;;;;;;;;;4994346;28;19925;-75
2022/12/04 09:44:06;;;;;;;;;;;;;;;;;;4975980;28;19932;-76
2022/12/04 09:46:35;;;;;;;;;;;;;;;;;;4987855;28;20001;-76
2022/12/04 09:49:02;;;;;;;;;;;;;;;;;;4983501;28;19926;-74
2022/12/04 09:51:31;;;;;;;;;;;;;;;;;;4987282;28;20383;-75
2022/12/04 09:54:02;;;;;;;;;;;;;;;;;;4985942;28;20154;-73
2022/12/04 09:56:30;;;;;;;;;;;;;;;;;;4987219;28;20336;-74
2022/12/04 09:58:59;;;;;;;;;;;;;;;;;;4985983;28;19932;-74
2022/12/04 10:01:28;;;;;;;;;;;;;;;;;;4985772;28;19926;-75
2022/12/04 10:03:54;;;;;;;;;;;;;;;;;;4985239;28;20008;-76
2022/12/04 10:06:22;;;;;;;;;;;;;;;;;;4985401;28;20582;-75
2022/12/04 10:08:54;;;;;;;;;;;;;;;;;;4985689;28;19926;-74
2022/12/04 10:11:23;;;;;;;;;;;;;;;;;;4985914;28;19966;-75
2022/12/04 10:13:58;;;;;;;;;;;;;;;;;;4983224;28;20336;-75
2022/12/04 10:16:27;;;;;;;;;;;;;;;;;;4987901;28;20317;-75
2022/12/04 10:18:58;;;;;;;;;;;;;;;;;;4985662;28;19965;-75
2022/12/04 10:21:34;;;;;;;;;;;;;;;;;;4989057;28;20032;-73
2022/12/04 10:24:09;;;;;;;;;;;;;;;;;;4982228;28;20017;-75
2022/12/04 10:26:39;;;;;;;;;;;;;;;;;;4991896;28;20368;-75
2022/12/04 10:29:07;;;;;;;;;;;;;;;;;;4986513;28;19932;-76
2022/12/04 10:31:35;;;;;;;;;;;;;;;;;;4982972;28;20001;-75
2022/12/04 10:34:02;;;;;;;;;;;;;;;;;;4985108;28;20056;-74
2022/12/04 10:36:31;;;;;;;;;;;;;;;;;;4984900;28;19961;-75
2022/12/04 10:38:58;;;;;;;;;;;;;;;;;;4983621;28;19926;-73
2022/12/04 10:41:27;;;;;;;;;;;;;;;;;;4987633;28;20012;-74
2022/12/04 10:43:54;;;;;;;;;;;;;;;;;;4983339;28;19926;-74
2022/12/04 10:46:22;;;;;;;;;;;;;;;;;;4987976;28;20046;-74
2022/12/04 10:48:50;;;;;;;;;;;;;;;;;;4984320;28;19937;-74
2022/12/04 10:51:17;;;;;;;;;;;;;;;;;;4987208;28;19929;-74
2022/12/04 10:53:44;;;;;;;;;;;;;;;;;;4984352;28;20469;-74
2022/12/04 10:56:11;;;;;;;;;;;;;;;;;;4982825;28;20282;-74
2022/12/04 10:58:39;;;;;;;;;;;;;;;;;;4982959;28;20320;-73
2022/12/04 11:01:07;;;;;;;;;;;;;;;;;;4983794;28;19926;-75
2022/12/04 11:03:33;;;;;;;;;;;;;;;;;;4983173;28;20005;-74
2022/12/04 11:06:01;;;;;;;;;;;;;;;;;;4983701;28;20001;-74
2022/12/04 11:08:31;;;;;;;;;;;;;;;;;;4976295;28;19969;-73
2022/12/04 11:10:59;;;;;;;;;;;;;;;;;;4986852;28;20012;-73
2022/12/04 11:13:25;;;;;;;;;;;;;;;;;;4992554;28;19973;-75
2022/12/04 11:15:54;;;;;;;;;;;;;;;;;;4992090;28;20025;-74
2022/12/04 11:18:21;;;;;;;;;;;;;;;;;;4992866;28;19925;-75
2022/12/04 11:20:52;;;;;;;;;;;;;;;;;;4993910;28;19984;-74
2022/12/04 11:23:19;;;;;;;;;;;;;;;;;;4991782;28;19930;-75
2022/12/04 11:25:46;;;;;;;;;;;;;;;;;;4990247;28;19926;-74
2022/12/04 11:28:16;;;;;;;;;;;;;;;;;;4985301;28;19926;-75
2022/12/04 11:30:46;;;;;;;;;;;;;;;;;;4986284;28;19929;-75
2022/12/04 11:33:17;;;;;;;;;;;;;;;;;;4985115;28;20296;-73
2022/12/04 11:35:50;;;;;;;;;;;;;;;;;;4986682;28;20032;-73
2022/12/04 11:38:17;;;;;;;;;;;;;;;;;;4985980;28;19925;-73
2022/12/04 11:40:46;;;;;;;;;;;;;;;;;;4989289;28;19926;-73
2022/12/04 11:43:14;;;;;;;;;;;;;;;;;;4986061;28;20389;-75
2022/12/04 11:45:41;;;;;;;;;;;;;;;;;;4990336;28;19979;-74
2022/12/04 11:48:13;;;;;;;;;;;;;;;;;;4986972;28;20017;-75
2022/12/04 11:50:44;;;;;;;;;;;;;;;;;;4995626;28;19925;-74
2022/12/04 11:53:14;;;;;;;;;;;;;;;;;;4995661;28;19926;-73
2022/12/04 11:55:46;;;;;;;;;;;;;;;;;;4995743;28;19965;-74
2022/12/04 11:58:22;;;;;;;;;;;;;;;;;;4995869;28;20012;-72
2022/12/04 12:00:53;;;;;;;;;;;;;;;;;;4995346;28;19965;-74
2022/12/04 12:03:22;;;;;;;;;;;;;;;;;;4995253;28;19941;-74
2022/12/04 12:06:00;;;;;;;;;;;;;;;;;;4995391;28;19970;-74
2022/12/04 12:08:34;;;;;;;;;;;;;;;;;;4995363;28;19976;-74
2022/12/04 12:11:03;;;;;;;;;;;;;;;;;;4995224;28;20020;-74
2022/12/04 12:13:34;;;;;;;;;;;;;;;;;;4995254;28;19926;-74
2022/12/04 12:16:07;;;;;;;;;;;;;;;;;;4995990;28;19979;-75
2022/12/04 12:18:42;;;;;;;;;;;;;;;;;;4995013;28;20013;-75
2022/12/04 12:21:13;;;;;;;;;;;;;;;;;;4995316;28;19989;-74
2022/12/04 12:23:46;;;;;;;;;;;;;;;;;;4995045;28;20016;-73
2022/12/04 12:26:13;;;;;;;;;;;;;;;;;;4995499;28;19925;-74
2022/12/04 12:28:45;;;;;;;;;;;;;;;;;;4994952;28;20016;-74
2022/12/04 12:31:20;;;;;;;;;;;;;;;;;;4994723;28;19926;-75
2022/12/04 12:33:51;;;;;;;;;;;;;;;;;;4994510;28;20134;-76
2022/12/04 12:36:20;;;;;;;;;;;;;;;;;;4994726;28;20444;-74
2022/12/04 12:38:49;;;;;;;;;;;;;;;;;;4994800;28;19937;-78
2022/12/04 12:41:16;;;;;;;;;;;;;;;;;;4994358;28;19980;-75
2022/12/04 12:43:44;;;;;;;;;;;;;;;;;;4994644;28;19961;-77
2022/12/04 12:46:13;;;;;;;;;;;;;;;;;;4994779;28;20016;-75
2022/12/04 12:48:44;;;;;;;;;;;;;;;;;;4994584;28;20118;-75
2022/12/04 12:51:15;;;;;;;;;;;;;;;;;;4995228;28;20020;-76
2022/12/04 12:53:46;;;;;;;;;;;;;;;;;;4994133;28;20009;-75
2022/12/04 12:56:13;;;;;;;;;;;;;;;;;;4994165;28;20297;-75
2022/12/04 12:58:42;;;;;;;;;;;;;;;;;;4994557;28;19973;-75
2022/12/04 13:01:12;;;;;;;;;;;;;;;;;;4993772;28;19934;-74
2022/12/04 13:03:42;;;;;;;;;;;;;;;;;;5003205;23;20577;-76
2022/12/04 13:06:12;;;;;;;;;;;;;;;;;;4993477;28;19926;-77
2022/12/04 13:08:40;;;;;;;;;;;;;;;;;;4993923;28;19937;-78
2022/12/04 13:11:11;;;;;;;;;;;;;;;;;;4994484;28;19964;-77
2022/12/04 13:13:40;;;;;;;;;;;;;;;;;;4994023;28;19926;-77
2022/12/04 13:16:09;;;;;;;;;;;;;;;;;;4993964;28;20000;-77
2022/12/04 13:18:38;;;;;;;;;;;;;;;;;;4993915;28;20093;-78
2022/12/04 13:21:06;;;;;;;;;;;;;;;;;;4994350;28;19932;-77
2022/12/04 13:23:50;;;;;;;;;;;;;;;;;;4994818;28;19926;-76
2022/12/04 13:26:24;;;;;;;;;;;;;;;;;;4994703;28;19932;-76
2022/12/04 13:28:53;;;;;;;;;;;;;;;;;;4999998;28;20012;-77
2022/12/04 13:31:25;;;;;;;;;;;;;;;;;;4999663;28;20029;-77
2022/12/04 13:34:09;;;;;;;;;;;;;;;;;;4996661;28;19932;-77
2022/12/04 13:36:44;;;;;;;;;;;;;;;;;;4996455;28;19933;-82
2022/12/04 13:39:28;;;;;;;;;;;;;;;;;;4996627;28;19933;-80
2022/12/04 13:41:58;;;;;;;;;;;;;;;;;;4996950;28;20024;-81
2022/12/04 13:44:25;;;;;;;;;;;;;;;;;;4997860;28;19932;-78
2022/12/04 13:46:54;;;;;;;;;;;;;;;;;;4996849;28;19989;-79
2022/12/04 13:49:25;;;;;;;;;;;;;;;;;;4995123;28;19932;-78
2022/12/04 13:51:52;;;;;;;;;;;;;;;;;;4990591;28;19926;-79
2022/12/04 13:54:23;;;;;;;;;;;;;;;;;;4993965;28;20306;-78
2022/12/04 13:56:50;;;;;;;;;;;;;;;;;;4993687;28;20020;-78
2022/12/04 13:59:23;;;;;;;;;;;;;;;;;;4993787;28;20021;-78
2022/12/04 14:01:50;;;;;;;;;;;;;;;;;;4992688;28;19973;-78
2022/12/04 14:04:25;;;;;;;;;;;;;;;;;;4995881;28;20409;-77
2022/12/04 14:06:52;;;;;;;;;;;;;;;;;;4997181;28;20009;-78
2022/12/04 14:09:21;;;;;;;;;;;;;;;;;;4998015;28;19936;-77
2022/12/04 14:11:49;;;;;;;;;;;;;;;;;;4998302;28;19949;-78
2022/12/04 14:14:22;;;;;;;;;;;;;;;;;;4998848;28;20004;-77
2022/12/04 14:16:50;;;;;;;;;;;;;;;;;;5003825;28;19937;-78
2022/12/04 14:19:26;;;;;;;;;;;;;;;;;;4995420;28;20347;-78
2022/12/04 14:21:53;;;;;;;;;;;;;;;;;;4993983;28;19965;-79
2022/12/04 14:24:28;;;;;;;;;;;;;;;;;;4994152;28;20448;-77
2022/12/04 14:26:55;;;;;;;;;;;;;;;;;;4993464;28;19926;-79
2022/12/04 14:29:30;;;;;;;;;;;;;;;;;;4999008;28;19926;-77
2022/12/04 14:32:00;;;;;;;;;;;;;;;;;;4993195;28;20356;-78
2022/12/04 14:34:28;;;;;;;;;;;;;;;;;;4993467;28;20432;-78
2022/12/04 14:36:55;;;;;;;;;;;;;;;;;;4993170;28;19926;-78
2022/12/04 14:39:25;;;;;;;;;;;;;;;;;;4993460;28;19972;-77
2022/12/04 14:41:53;;;;;;;;;;;;;;;;;;4993278;28;19932;-78
2022/12/04 14:44:24;;;;;;;;;;;;;;;;;;4979111;28;19927;-79
2022/12/04 14:46:52;;;;;;;;;;;;;;;;;;4974036;28;19933;-77
2022/12/04 14:49:26;;;;;;;;;;;;;;;;;;4975232;28;19937;-77
2022/12/04 14:51:58;;;;;;;;;;;;;;;;;;4988362;28;19925;-78
2022/12/04 14:54:28;;;;;;;;;;;;;;;;;;4994940;28;19977;-77
2022/12/04 14:57:00;;;;;;;;;;;;;;;;;;5016164;28;19953;-78
2022/12/04 14:59:40;;;;;;;;;;;;;;;;;;5022288;28;19916;-79
2022/12/04 15:02:10;;;;;;;;;;;;;;;;;;5021387;28;19925;-77
2022/12/04 15:04:45;;;;;;;;;;;;;;;;;;4999776;28;19998;-77
2022/12/04 15:07:12;;;;;;;;;;;;;;;;;;4990017;28;19932;-77
2022/12/04 15:12:35;;;;;;;;;;;;;;;;;;4987560;28;19933;-76
2022/12/04 15:15:04;;;;;;;;;;;;;;;;;;4987284;28;19969;-77
2022/12/04 15:17:30;;;;;;;;;;;;;;;;;;4989321;28;19972;-76
2022/12/04 15:20:08;;;;;;;;;;;;;;;;;;4987317;28;19981;-77
2022/12/04 15:22:35;;;;;;;;;;;;;;;;;;4984900;28;20024;-78
2022/12/04 15:25:01;;;;;;;;;;;;;;;;;;4987228;28;20028;-77
2022/12/04 15:27:28;;;;;;;;;;;;;;;;;;4988004;28;19932;-77
2022/12/04 15:29:56;;;;;;;;;;;;;;;;;;4996121;28;19925;-77
2022/12/04 15:32:27;;;;;;;;;;;;;;;;;;4995871;28;20020;-77
2022/12/04 15:34:55;;;;;;;;;;;;;;;;;;4996039;28;20316;-77
2022/12/04 15:37:26;;;;;;;;;;;;;;;;;;4996323;28;19926;-77
2022/12/04 15:39:53;;;;;;;;;;;;;;;;;;4993285;28;20300;-77
2022/12/04 15:42:24;;;;;;;;;;;;;;;;;;4995139;28;20032;-76
2022/12/04 15:44:52;;;;;;;;;;;;;;;;;;4995059;28;20009;-76
2022/12/04 15:47:20;;;;;;;;;;;;;;;;;;4995112;28;19926;-76
2022/12/04 15:49:47;;;;;;;;;;;;;;;;;;4996252;28;19929;-77
2022/12/04 15:52:15;;;;;;;;;;;;;;;;;;5000979;28;19960;-77
2022/12/04 15:54:43;;;;;;;;;;;;;;;;;;4990748;28;20021;-76
2022/12/04 15:57:15;;;;;;;;;;;;;;;;;;4991302;28;19926;-76
2022/12/04 15:59:48;;;;;;;;;;;;;;;;;;4995499;28;19969;-77
2022/12/04 16:02:22;;;;;;;;;;;;;;;;;;4994851;28;19972;-78
2022/12/04 16:04:49;;;;;;;;;;;;;;;;;;4995435;28;20056;-76
2022/12/04 16:07:19;;;;;;;;;;;;;;;;;;4995429;28;19972;-76
2022/12/04 16:09:51;;;;;;;;;;;;;;;;;;4995687;28;19926;-77
2022/12/04 16:12:19;;;;;;;;;;;;;;;;;;4995157;28;19926;-77
2022/12/04 16:14:46;;;;;;;;;;;;;;;;;;4995044;28;19972;-76
2022/12/04 16:17:13;;;;;;;;;;;;;;;;;;4996447;28;19925;-76
2022/12/04 16:19:40;;;;;;;;;;;;;;;;;;4994637;28;20389;-77
2022/12/04 16:22:11;;;;;;;;;;;;;;;;;;4995230;28;20351;-76
2022/12/04 16:24:38;;;;;;;;;;;;;;;;;;4975854;28;20026;-76
2022/12/04 16:27:10;;;;;;;;;;;;;;;;;;4981214;28;19926;-77
2022/12/04 16:29:36;;;;;;;;;;;;;;;;;;4994846;28;20018;-76
2022/12/04 16:32:03;;;;;;;;;;;;;;;;;;4994622;28;19980;-78
2022/12/04 16:34:29;;;;;;;;;;;;;;;;;;4994682;28;19936;-76
2022/12/04 16:36:56;;;;;;;;;;;;;;;;;;4994608;28;19944;-76
2022/12/04 16:39:22;;;;;;;;;;;;;;;;;;4995014;28;19926;-77
2022/12/04 16:41:48;;;;;;;;;;;;;;;;;;4994342;28;19972;-77
2022/12/04 16:44:16;;;;;;;;;;;;;;;;;;4994631;28;19926;-76
2022/12/04 16:46:43;;;;;;;;;;;;;;;;;;4994612;28;19925;-77
2022/12/04 16:49:11;;;;;;;;;;;;;;;;;;4994510;28;19994;-78
2022/12/04 16:51:38;;;;;;;;;;;;;;;;;;4996013;28;19949;-77
2022/12/04 16:54:04;;;;;;;;;;;;;;;;;;4996945;28;19926;-77
2022/12/04 16:56:31;;;;;;;;;;;;;;;;;;4996010;28;19972;-77
2022/12/04 16:58:57;;;;;;;;;;;;;;;;;;4994719;28;20393;-77
2022/12/04 17:01:27;;;;;;;;;;;;;;;;;;4994254;28;20013;-77
2022/12/04 17:03:54;;;;;;;;;;;;;;;;;;4995000;28;19932;-77
2022/12/04 17:06:20;;;;;;;;;;;;;;;;;;4994708;28;19936;-76
2022/12/04 17:08:47;;;;;;;;;;;;;;;;;;4994276;28;20016;-76
2022/12/04 17:11:14;;;;;;;;;;;;;;;;;;4993967;28;20336;-76